Time;durP1;ratioP1;P1;durP2;ratioP2;P2;SDS_P1;SDS_P2;PMS_P1;PMS_P2;Temp;Humidity;BMP_temperature;BMP_pressure;BME280_temperature;BME280_humidity;BME280_pressure;Samples;Min_cycle;Max_cycle;Signal;HPM_P1;HPM_P2
2022/01/06 00:00:39;;;;;;;5.50;1.42;;;7.70;97.60;;;;;;6250000;22;20011;-75
2022/01/06 00:03:08;;;;;;;4.60;1.60;;;7.70;97.50;;;;;;6236894;22;20008;-74
2022/01/06 00:05:34;;;;;;;5.05;1.35;;;7.70;97.30;;;;;;6239309;22;20008;-73
2022/01/06 00:08:02;;;;;;;4.18;1.67;;;7.70;97.70;;;;;;6240934;22;20012;-73
2022/01/06 00:10:29;;;;;;;4.28;1.60;;;7.70;98.40;;;;;;6257968;22;20019;-74
2022/01/06 00:15:35;;;;;;;2.63;1.17;;;7.80;97.80;;;;;;6270910;22;20016;-72
2022/01/06 00:23:30;;;;;;;5.40;1.60;;;7.60;97.30;;;;;;6239272;22;20027;-73
2022/01/06 00:25:57;;;;;;;5.38;1.30;;;7.60;98.20;;;;;;6239284;22;20359;-73
2022/01/06 00:28:24;;;;;;;3.40;1.40;;;7.50;97.80;;;;;;6236238;22;20320;-73
2022/01/06 00:30:50;;;;;;;3.58;1.67;;;7.70;98.10;;;;;;6241363;22;20016;-74
2022/01/06 00:33:17;;;;;;;4.20;1.80;;;7.60;98.40;;;;;;6250748;22;20028;-75
2022/01/06 00:35:44;;;;;;;5.72;1.85;;;7.50;99.10;;;;;;6249953;22;20455;-74
2022/01/06 00:38:10;;;;;;;4.90;1.63;;;7.30;99.50;;;;;;6234816;22;20095;-74
2022/01/06 00:40:36;;;;;;;5.60;1.90;;;7.20;99.90;;;;;;6258298;22;20384;-74
2022/01/06 00:43:04;;;;;;;3.53;1.73;;;7.20;99.90;;;;;;6270139;22;20026;-71
2022/01/06 00:45:31;;;;;;;5.60;2.03;;;7.20;99.90;;;;;;6249868;22;20015;-73
2022/01/06 00:47:58;;;;;;;2.65;1.65;;;7.20;99.90;;;;;;6237990;22;20012;-72
2022/01/06 00:50:26;;;;;;;3.28;1.65;;;7.20;99.90;;;;;;6212132;22;20016;-74
2022/01/06 00:52:52;;;;;;;2.53;1.50;;;7.10;99.90;;;;;;6240385;22;20134;-73
2022/01/06 00:55:18;;;;;;;4.70;1.60;;;7.10;99.90;;;;;;6260253;22;20037;-73
2022/01/06 00:57:44;;;;;;;3.35;1.50;;;7.00;99.90;;;;;;6240865;22;20013;-74
2022/01/06 01:00:11;;;;;;;3.75;1.40;;;7.00;99.90;;;;;;6263841;22;20012;-74
2022/01/06 01:02:37;;;;;;;3.67;1.60;;;6.90;99.90;;;;;;6258506;22;20017;-72
2022/01/06 01:05:04;;;;;;;5.10;1.70;;;6.90;99.90;;;;;;6254391;22;20035;-73
2022/01/06 01:07:30;;;;;;;2.95;1.73;;;6.80;99.90;;;;;;6249488;22;20016;-73
2022/01/06 01:09:56;;;;;;;3.80;1.90;;;6.80;99.90;;;;;;6238932;22;20100;-73
2022/01/06 01:12:25;;;;;;;4.20;1.60;;;6.80;99.90;;;;;;6253838;22;20378;-73
2022/01/06 01:15:04;;;;;;;3.60;1.70;;;6.90;99.90;;;;;;6246008;22;20508;-73
2022/01/06 01:17:30;;;;;;;4.53;1.80;;;6.90;99.90;;;;;;6238352;22;20016;-74
2022/01/06 01:19:57;;;;;;;3.42;1.52;;;6.80;99.90;;;;;;6236868;22;20018;-73
2022/01/06 01:22:23;;;;;;;4.40;1.40;;;7.00;99.90;;;;;;6255763;22;20058;-73
2022/01/06 01:24:49;;;;;;;4.43;1.42;;;7.10;99.80;;;;;;6261301;22;20016;-73
2022/01/06 01:27:20;;;;;;;5.40;1.52;;;7.00;99.50;;;;;;6236516;22;20036;-75
2022/01/06 01:30:04;;;;;;;5.40;1.35;;;7.00;99.70;;;;;;6238576;22;20103;-73
2022/01/06 01:32:34;;;;;;;3.08;1.40;;;6.80;99.90;;;;;;6243421;22;20034;-73
2022/01/06 01:35:01;;;;;;;3.90;1.42;;;6.80;99.90;;;;;;6270532;22;20328;-74
2022/01/06 01:37:31;;;;;;;2.78;1.40;;;6.70;99.90;;;;;;6242501;22;20343;-75
2022/01/06 01:39:58;;;;;;;5.07;1.77;;;6.60;99.90;;;;;;6258416;22;20089;-73
2022/01/06 01:42:25;;;;;;;2.85;1.25;;;6.60;99.90;;;;;;6254355;22;20088;-75
2022/01/06 01:44:54;;;;;;;4.35;1.30;;;6.80;97.30;;;;;;6246144;22;20016;-72
2022/01/06 01:47:44;;;;;;;4.05;1.00;;;6.80;98.10;;;;;;6237101;22;20020;-73
2022/01/06 01:50:15;;;;;;;2.15;1.00;;;6.70;97.30;;;;;;6237386;22;20008;-73
2022/01/06 01:52:56;;;;;;;1.77;1.05;;;6.90;96.20;;;;;;6240254;22;20011;-73
2022/01/06 01:55:32;;;;;;;4.03;1.30;;;6.90;96.20;;;;;;6254108;22;20030;-73
2022/01/06 01:57:59;;;;;;;4.97;1.20;;;6.90;95.90;;;;;;6244002;22;20012;-74
2022/01/06 02:00:28;;;;;;;4.35;1.20;;;6.80;96.10;;;;;;6243500;22;20438;-74
2022/01/06 02:02:55;;;;;;;1.60;1.05;;;6.70;96.60;;;;;;6256771;22;20494;-73
2022/01/06 02:05:26;;;;;;;3.20;1.20;;;6.60;96.70;;;;;;6255591;22;20019;-75
2022/01/06 02:07:54;;;;;;;3.05;1.40;;;6.60;97.00;;;;;;6246017;22;20352;-74
2022/01/06 02:10:21;;;;;;;3.75;1.20;;;6.60;97.30;;;;;;6242693;22;20052;-73
2022/01/06 02:12:49;;;;;;;3.83;1.48;;;6.50;97.60;;;;;;6256813;22;20427;-74
2022/01/06 02:15:17;;;;;;;2.80;1.05;;;6.50;97.80;;;;;;6254825;22;20035;-75
2022/01/06 02:17:44;;;;;;;1.80;1.00;;;6.40;97.70;;;;;;6248015;22;20043;-73
2022/01/06 02:20:15;;;;;;;2.58;1.08;;;6.30;97.80;;;;;;6241152;22;20016;-73
2022/01/06 02:22:43;;;;;;;2.25;1.05;;;6.40;97.60;;;;;;6263343;22;20016;-72
2022/01/06 02:25:15;;;;;;;4.85;0.90;;;6.40;97.10;;;;;;6251542;22;20015;-74
2022/01/06 02:27:42;;;;;;;1.60;0.93;;;6.50;96.60;;;;;;6258223;22;20012;-73
2022/01/06 02:30:10;;;;;;;2.38;0.93;;;6.50;96.10;;;;;;6257048;22;20384;-73
2022/01/06 02:32:37;;;;;;;1.52;1.00;;;6.70;95.10;;;;;;6270282;22;20012;-74
2022/01/06 02:35:12;;;;;;;2.92;0.80;;;6.80;94.80;;;;;;6242169;22;20043;-73
2022/01/06 02:37:38;;;;;;;2.20;1.00;;;6.80;94.40;;;;;;6239891;22;20324;-74
2022/01/06 02:40:16;;;;;;;4.78;0.90;;;6.80;94.40;;;;;;6238561;22;20092;-73
2022/01/06 02:42:46;;;;;;;3.95;0.93;;;6.90;94.00;;;;;;6250514;22;20019;-73
2022/01/06 02:45:12;;;;;;;2.33;0.70;;;7.00;94.20;;;;;;6237697;22;20104;-73
2022/01/06 02:47:39;;;;;;;1.83;0.82;;;7.00;93.90;;;;;;6240049;22;20012;-72
2022/01/06 02:50:06;;;;;;;1.88;0.90;;;6.90;93.90;;;;;;6238072;22;20044;-73
2022/01/06 02:52:33;;;;;;;2.75;0.80;;;6.90;93.80;;;;;;6212887;23;20325;-73
2022/01/06 02:54:59;;;;;;;2.85;0.90;;;6.80;93.70;;;;;;6239748;22;20418;-73
2022/01/06 02:57:25;;;;;;;1.30;0.70;;;6.90;93.80;;;;;;6236520;22;20019;-73
2022/01/06 02:59:52;;;;;;;2.55;1.00;;;6.90;93.50;;;;;;6240241;22;20016;-73
2022/01/06 03:02:17;;;;;;;1.60;0.70;;;7.00;93.30;;;;;;6262088;22;20016;-75
2022/01/06 03:04:43;;;;;;;2.72;0.85;;;6.90;93.50;;;;;;6262791;22;20083;-73
2022/01/06 03:07:09;;;;;;;2.75;1.10;;;6.90;93.70;;;;;;6257814;22;20022;-75
2022/01/06 03:09:38;;;;;;;1.60;0.90;;;6.90;94.30;;;;;;6271914;22;20016;-75
2022/01/06 03:12:12;;;;;;;1.85;0.80;;;6.80;94.40;;;;;;6208030;22;20356;-73
2022/01/06 03:14:38;;;;;;;3.83;1.30;;;6.80;94.70;;;;;;6239359;22;20020;-74
2022/01/06 03:17:05;;;;;;;3.00;1.23;;;6.70;94.80;;;;;;6240635;22;20027;-74
2022/01/06 03:19:31;;;;;;;5.50;1.40;;;6.60;95.00;;;;;;6239559;22;20042;-73
2022/01/06 03:21:57;;;;;;;5.25;0.90;;;6.50;95.20;;;;;;6252154;22;20035;-73
2022/01/06 03:24:22;;;;;;;3.90;1.00;;;6.60;95.20;;;;;;6258938;22;20070;-74
2022/01/06 03:26:49;;;;;;;2.75;0.95;;;6.60;95.30;;;;;;6260101;22;20098;-73
2022/01/06 03:29:15;;;;;;;2.35;0.85;;;6.60;95.50;;;;;;6254099;22;20068;-72
2022/01/06 03:31:42;;;;;;;3.65;0.90;;;6.50;95.70;;;;;;6272204;22;20016;-72
2022/01/06 03:34:08;;;;;;;2.85;1.10;;;6.50;95.80;;;;;;6242118;22;20066;-73
2022/01/06 03:36:35;;;;;;;3.72;1.08;;;6.40;95.50;;;;;;6241387;22;20012;-73
2022/01/06 03:39:00;;;;;;;1.52;0.77;;;6.40;95.50;;;;;;6239684;22;20020;-74
2022/01/06 03:41:26;;;;;;;1.65;0.85;;;6.40;95.70;;;;;;6240152;22;20023;-75
2022/01/06 03:43:52;;;;;;;2.25;1.13;;;6.40;95.50;;;;;;6241188;22;20090;-73
2022/01/06 03:46:18;;;;;;;2.45;1.00;;;6.50;95.30;;;;;;6239617;22;20017;-73
2022/01/06 03:48:43;;;;;;;2.58;1.17;;;6.40;95.30;;;;;;6262330;22;20515;-73
2022/01/06 03:51:12;;;;;;;1.58;0.80;;;6.40;95.40;;;;;;6270391;22;20022;-73
2022/01/06 03:53:39;;;;;;;2.90;0.93;;;6.30;95.50;;;;;;6249349;22;20085;-73
2022/01/06 03:56:05;;;;;;;2.15;1.10;;;6.20;95.50;;;;;;6252422;22;20019;-75
2022/01/06 03:58:32;;;;;;;2.67;1.20;;;6.20;95.80;;;;;;6239191;22;20023;-71
2022/01/06 04:00:58;;;;;;;3.90;1.10;;;6.30;95.70;;;;;;6251066;22;20023;-74
2022/01/06 04:03:24;;;;;;;2.47;1.27;;;6.20;95.80;;;;;;6215779;22;20076;-74
2022/01/06 04:05:50;;;;;;;1.80;1.00;;;6.30;95.30;;;;;;6240598;22;20039;-73
2022/01/06 04:08:16;;;;;;;2.20;0.98;;;6.30;95.40;;;;;;6254923;22;20339;-75
2022/01/06 04:10:42;;;;;;;3.42;1.08;;;6.20;95.10;;;;;;6257589;22;20111;-73
2022/01/06 04:13:08;;;;;;;2.08;1.20;;;6.30;95.00;;;;;;6256580;22;20066;-72
2022/01/06 04:15:35;;;;;;;1.92;1.00;;;6.40;95.10;;;;;;6255352;22;20012;-73
2022/01/06 04:18:01;;;;;;;2.30;1.05;;;6.30;95.10;;;;;;6256202;22;20016;-72
2022/01/06 04:20:27;;;;;;;1.30;0.63;;;6.50;94.80;;;;;;6239973;22;20027;-73
2022/01/06 04:22:53;;;;;;;1.60;1.10;;;6.40;94.60;;;;;;6238662;23;20019;-73
2022/01/06 04:25:19;;;;;;;3.80;0.82;;;6.40;94.60;;;;;;6239056;22;20016;-74
2022/01/06 04:27:46;;;;;;;1.95;1.00;;;6.40;94.50;;;;;;6213007;23;20019;-71
2022/01/06 04:30:12;;;;;;;2.20;0.73;;;6.40;94.60;;;;;;6215530;22;20394;-76
2022/01/06 04:32:39;;;;;;;2.78;0.80;;;6.50;94.60;;;;;;6213459;23;20440;-74
2022/01/06 04:35:06;;;;;;;2.65;0.93;;;6.40;94.60;;;;;;6237441;22;20508;-74
2022/01/06 04:37:32;;;;;;;3.75;0.98;;;6.50;94.60;;;;;;6237667;23;20038;-73
2022/01/06 04:39:58;;;;;;;2.85;1.13;;;6.40;95.00;;;;;;6235340;22;20019;-74
2022/01/06 04:42:25;;;;;;;1.58;0.80;;;6.40;94.80;;;;;;6236075;22;20085;-72
2022/01/06 04:44:52;;;;;;;1.67;0.82;;;6.40;94.70;;;;;;6240749;22;20012;-73
2022/01/06 04:47:18;;;;;;;4.70;1.00;;;6.40;95.30;;;;;;6229320;22;20050;-73
2022/01/06 04:49:44;;;;;;;4.57;1.17;;;6.30;95.70;;;;;;6246719;22;20038;-73
2022/01/06 04:52:10;;;;;;;3.10;1.00;;;6.20;95.80;;;;;;6235801;22;20317;-73
2022/01/06 04:54:35;;;;;;;2.03;0.93;;;6.10;95.70;;;;;;6239189;22;20024;-73
2022/01/06 04:57:02;;;;;;;1.92;0.90;;;6.10;95.90;;;;;;6239440;22;20079;-72
2022/01/06 04:59:29;;;;;;;2.35;1.15;;;6.00;95.70;;;;;;6236886;23;20012;-72
2022/01/06 05:01:55;;;;;;;2.60;0.90;;;6.00;95.90;;;;;;6237840;22;20020;-72
2022/01/06 05:04:21;;;;;;;1.48;0.85;;;6.00;95.60;;;;;;6236054;22;20086;-76
2022/01/06 05:06:47;;;;;;;2.58;1.10;;;5.90;95.80;;;;;;6261485;22;20024;-75
2022/01/06 05:09:15;;;;;;;1.25;0.80;;;6.00;95.30;;;;;;6267616;22;20339;-73
2022/01/06 05:11:41;;;;;;;2.85;1.00;;;6.10;95.00;;;;;;6270933;22;20352;-71
2022/01/06 05:14:07;;;;;;;1.85;0.95;;;6.00;95.10;;;;;;6268144;22;20024;-74
2022/01/06 05:16:33;;;;;;;4.00;1.80;;;5.90;95.10;;;;;;6269698;22;20073;-74
2022/01/06 05:18:59;;;;;;;2.20;1.00;;;6.00;95.10;;;;;;6268555;22;20335;-72
2022/01/06 05:21:31;;;;;;;2.80;0.90;;;6.00;94.80;;;;;;6268950;22;20020;-76
2022/01/06 05:23:57;;;;;;;1.95;1.00;;;6.00;95.00;;;;;;6243292;22;20051;-72
2022/01/06 05:26:24;;;;;;;2.47;0.98;;;6.10;95.20;;;;;;6255245;22;20157;-74
2022/01/06 05:28:51;;;;;;;2.97;1.00;;;6.00;94.90;;;;;;6245010;22;20016;-73
2022/01/06 05:31:17;;;;;;;1.45;0.80;;;6.00;95.00;;;;;;6236712;22;20459;-75
2022/01/06 05:33:43;;;;;;;3.25;1.05;;;6.10;95.40;;;;;;6260119;22;20023;-73
2022/01/06 05:36:09;;;;;;;2.83;1.17;;;6.00;95.90;;;;;;6252662;22;20080;-74
2022/01/06 05:38:35;;;;;;;4.25;1.25;;;5.90;95.50;;;;;;6256628;22;20016;-73
2022/01/06 05:41:02;;;;;;;2.17;1.00;;;5.90;95.70;;;;;;6268988;22;20020;-74
2022/01/06 05:43:28;;;;;;;1.13;0.70;;;6.00;95.40;;;;;;6238486;22;20440;-75
2022/01/06 05:45:56;;;;;;;2.08;0.90;;;6.00;95.20;;;;;;6255570;22;20082;-74
2022/01/06 05:48:23;;;;;;;1.75;1.00;;;5.90;95.10;;;;;;6238139;22;20024;-72
2022/01/06 05:50:51;;;;;;;2.00;0.88;;;5.90;95.30;;;;;;6217285;23;20016;-72
2022/01/06 05:53:19;;;;;;;3.15;1.27;;;5.90;95.40;;;;;;6253643;22;20538;-72
2022/01/06 05:55:45;;;;;;;2.05;1.05;;;5.80;95.50;;;;;;6246254;22;20008;-73
2022/01/06 05:58:12;;;;;;;2.85;1.25;;;5.70;96.00;;;;;;6213225;22;20019;-72
2022/01/06 06:00:38;;;;;;;1.88;0.93;;;5.60;95.80;;;;;;6282783;22;20503;-74
2022/01/06 06:03:04;;;;;;;2.38;0.98;;;5.70;95.80;;;;;;6241257;22;20012;-71
2022/01/06 06:05:31;;;;;;;3.17;1.10;;;5.60;95.80;;;;;;6282155;22;20012;-74
2022/01/06 06:07:57;;;;;;;2.05;0.98;;;5.60;95.80;;;;;;6243817;22;20008;-73
2022/01/06 06:10:23;;;;;;;3.95;1.20;;;5.80;95.90;;;;;;6236770;22;20031;-74
2022/01/06 06:12:52;;;;;;;2.72;1.00;;;5.80;95.60;;;;;;6237140;22;20020;-73
2022/01/06 06:15:21;;;;;;;5.35;1.58;;;5.90;95.40;;;;;;6238720;22;20024;-73
2022/01/06 06:17:47;;;;;;;3.55;1.10;;;5.80;95.20;;;;;;6239399;22;20351;-73
2022/01/06 06:20:14;;;;;;;3.40;1.15;;;5.90;95.00;;;;;;6251231;22;20016;-74
2022/01/06 06:22:39;;;;;;;2.08;0.90;;;5.90;95.20;;;;;;6258405;22;20081;-73
2022/01/06 06:25:07;;;;;;;2.25;1.05;;;5.80;95.40;;;;;;6268969;22;20499;-74
2022/01/06 06:27:33;;;;;;;1.95;1.00;;;5.70;95.40;;;;;;6270053;22;20015;-74
2022/01/06 06:29:59;;;;;;;3.95;0.90;;;5.70;95.50;;;;;;6243383;22;20062;-73
2022/01/06 06:32:27;;;;;;;2.65;0.90;;;5.60;95.30;;;;;;6236581;22;20008;-74
2022/01/06 06:34:53;;;;;;;2.92;0.82;;;5.60;95.60;;;;;;6238600;22;20024;-73
2022/01/06 06:37:19;;;;;;;3.17;1.10;;;5.60;95.30;;;;;;6238631;22;20447;-73
2022/01/06 06:39:45;;;;;;;3.15;1.00;;;5.50;95.30;;;;;;6240650;22;20070;-73
2022/01/06 06:42:10;;;;;;;2.83;1.08;;;5.60;95.20;;;;;;6252000;22;20498;-75
2022/01/06 06:44:36;;;;;;;3.50;1.02;;;5.50;95.50;;;;;;6258670;22;20526;-74
2022/01/06 06:47:03;;;;;;;2.15;1.33;;;5.50;95.60;;;;;;6243491;22;20012;-73
2022/01/06 06:49:29;;;;;;;2.60;1.00;;;5.60;95.90;;;;;;6226266;22;20016;-73
2022/01/06 06:51:55;;;;;;;3.03;1.15;;;5.50;95.90;;;;;;6232042;23;20058;-73
2022/01/06 06:54:21;;;;;;;3.17;1.42;;;5.50;95.90;;;;;;6239265;22;20356;-72
2022/01/06 06:56:48;;;;;;;4.03;1.13;;;5.50;95.70;;;;;;6214852;23;20008;-73
2022/01/06 06:59:14;;;;;;;2.20;0.98;;;5.50;95.80;;;;;;6238705;22;20020;-73
2022/01/06 07:01:40;;;;;;;2.30;1.00;;;5.50;95.50;;;;;;6242522;22;20023;-74
2022/01/06 07:04:06;;;;;;;3.08;1.00;;;5.60;95.40;;;;;;6253723;22;20012;-73
2022/01/06 07:06:32;;;;;;;1.10;1.00;;;5.60;95.30;;;;;;6266436;22;20023;-72
2022/01/06 07:08:58;;;;;;;2.15;1.10;;;5.70;95.20;;;;;;6265002;22;20094;-75
2022/01/06 07:11:25;;;;;;;3.22;0.85;;;5.60;95.20;;;;;;6251766;22;20095;-71
2022/01/06 07:13:51;;;;;;;1.67;0.90;;;5.70;95.00;;;;;;6288481;22;20016;-72
2022/01/06 07:16:17;;;;;;;1.65;1.00;;;5.80;94.60;;;;;;6240867;22;20020;-72
2022/01/06 07:18:43;;;;;;;2.70;1.05;;;5.80;94.60;;;;;;6241205;22;20016;-75
2022/01/06 07:21:09;;;;;;;3.47;1.17;;;5.80;94.40;;;;;;6239504;22;20012;-73
2022/01/06 07:23:35;;;;;;;3.85;1.02;;;5.80;94.30;;;;;;6240383;22;20062;-76
2022/01/06 07:26:01;;;;;;;2.85;1.20;;;5.80;94.20;;;;;;6240802;22;20016;-74
2022/01/06 07:28:27;;;;;;;4.40;1.00;;;5.80;94.30;;;;;;6227663;22;20308;-76
2022/01/06 07:30:53;;;;;;;3.65;1.10;;;5.70;94.40;;;;;;6241365;22;20352;-74
2022/01/06 07:33:19;;;;;;;2.58;0.93;;;5.80;94.00;;;;;;6239765;22;20015;-75
2022/01/06 07:35:45;;;;;;;4.78;1.02;;;5.80;94.30;;;;;;6241417;22;20012;-74
2022/01/06 07:38:11;;;;;;;2.42;0.93;;;5.80;94.00;;;;;;6237423;22;20040;-75
2022/01/06 07:40:37;;;;;;;4.03;1.02;;;5.80;94.10;;;;;;6239516;22;20016;-74
2022/01/06 07:43:03;;;;;;;3.10;0.95;;;5.90;93.90;;;;;;6236668;22;20072;-74
2022/01/06 07:45:29;;;;;;;3.42;1.10;;;5.90;93.70;;;;;;6239829;22;20043;-74
2022/01/06 07:48:02;;;;;;;2.65;1.08;;;6.00;94.10;;;;;;6240681;22;20013;-76
2022/01/06 07:50:33;;;;;;;4.65;1.13;;;6.10;93.70;;;;;;6256696;22;20015;-75
2022/01/06 07:53:02;;;;;;;4.78;1.15;;;6.10;94.70;;;;;;6257236;22;20011;-73
2022/01/06 07:55:28;;;;;;;2.45;0.90;;;6.00;94.90;;;;;;6237930;22;20113;-75
2022/01/06 07:57:54;;;;;;;4.22;1.17;;;6.00;94.70;;;;;;6250805;22;20021;-75
2022/01/06 08:00:22;;;;;;;2.70;0.80;;;6.10;94.50;;;;;;6255846;22;20090;-74
2022/01/06 08:02:48;;;;;;;2.63;1.00;;;6.10;94.50;;;;;;6258959;22;20507;-76
2022/01/06 08:05:15;;;;;;;2.28;0.88;;;6.10;94.50;;;;;;6255146;22;20016;-74
2022/01/06 08:07:41;;;;;;;5.82;1.20;;;6.20;94.00;;;;;;6250979;22;20047;-75
2022/01/06 08:10:09;;;;;;;3.22;1.10;;;6.30;94.20;;;;;;6239347;22;20042;-73
2022/01/06 08:12:36;;;;;;;2.75;0.90;;;6.30;94.10;;;;;;6239095;22;20020;-75
2022/01/06 08:15:03;;;;;;;2.25;0.98;;;6.40;93.40;;;;;;6251029;22;20471;-74
2022/01/06 08:17:29;;;;;;;1.73;0.80;;;6.50;92.30;;;;;;6239845;22;20008;-76
2022/01/06 08:19:55;;;;;;;5.70;1.23;;;6.50;92.40;;;;;;6252207;22;20026;-74
2022/01/06 08:22:22;;;;;;;1.90;1.05;;;6.60;92.20;;;;;;6238754;22;20399;-76
2022/01/06 08:24:48;;;;;;;3.13;1.00;;;7.00;91.70;;;;;;6241353;22;20020;-75
2022/01/06 08:27:14;;;;;;;2.90;1.02;;;6.90;91.90;;;;;;6240135;22;20456;-76
2022/01/06 08:29:42;;;;;;;3.40;2.00;;;6.80;91.80;;;;;;6241392;22;20026;-75
2022/01/06 08:32:08;;;;;;;3.08;2.65;;;7.80;91.90;;;;;;6251877;22;20019;-75
2022/01/06 08:34:34;;;;;;;3.13;1.92;;;9.50;90.40;;;;;;6250825;22;20023;-74
2022/01/06 08:37:01;;;;;;;2.95;1.45;;;10.20;88.90;;;;;;6240452;22;20012;-73
2022/01/06 08:39:27;;;;;;;2.08;1.40;;;10.40;87.10;;;;;;6268813;22;20324;-75
2022/01/06 08:41:53;;;;;;;2.88;1.40;;;11.10;87.00;;;;;;6235692;22;20019;-72
2022/01/06 08:44:21;;;;;;;3.33;1.60;;;11.70;86.40;;;;;;6249114;22;20042;-73
2022/01/06 08:46:48;;;;;;;1.92;1.20;;;11.70;83.60;;;;;;6240654;22;20085;-71
2022/01/06 08:49:15;;;;;;;2.83;1.30;;;11.40;82.70;;;;;;6228747;22;20015;-73
2022/01/06 08:51:41;;;;;;;4.20;1.55;;;11.80;83.80;;;;;;6231988;22;20062;-72
2022/01/06 08:54:09;;;;;;;2.13;1.17;;;12.20;84.20;;;;;;6232605;22;20465;-73
2022/01/06 08:56:36;;;;;;;2.53;1.63;;;12.10;81.20;;;;;;6238114;22;20019;-73
2022/01/06 08:59:04;;;;;;;1.38;1.15;;;11.50;82.70;;;;;;6238296;22;20036;-73
2022/01/06 09:01:32;;;;;;;2.63;1.23;;;10.80;81.80;;;;;;6238253;22;20008;-73
2022/01/06 09:03:58;;;;;;;2.28;1.23;;;9.80;82.50;;;;;;6237091;22;20382;-73
2022/01/06 09:06:25;;;;;;;2.80;0.85;;;9.50;83.10;;;;;;6244164;22;20027;-75
2022/01/06 09:08:52;;;;;;;3.35;1.10;;;9.30;84.40;;;;;;6258131;22;20387;-72
2022/01/06 09:11:19;;;;;;;2.17;1.10;;;9.10;85.00;;;;;;6266812;22;20102;-72
2022/01/06 09:13:45;;;;;;;3.33;1.10;;;9.00;85.10;;;;;;6247449;22;20027;-72
2022/01/06 09:16:12;;;;;;;2.38;1.00;;;8.90;84.10;;;;;;6269673;22;20012;-72
2022/01/06 09:18:40;;;;;;;3.20;1.00;;;8.90;84.10;;;;;;6248797;22;20032;-71
2022/01/06 09:21:08;;;;;;;3.78;1.00;;;9.00;86.10;;;;;;6238239;22;20019;-72
2022/01/06 09:23:35;;;;;;;1.85;1.10;;;9.00;85.50;;;;;;6246969;22;20109;-71
2022/01/06 09:26:01;;;;;;;1.95;0.93;;;8.90;84.60;;;;;;6255667;22;20061;-73
2022/01/06 09:28:28;;;;;;;3.85;1.00;;;9.10;83.60;;;;;;6250035;22;20019;-71
2022/01/06 09:30:55;;;;;;;3.35;1.08;;;9.10;84.90;;;;;;6250206;22;20059;-72
2022/01/06 09:33:22;;;;;;;1.73;1.10;;;9.20;84.30;;;;;;6216113;22;20012;-72
2022/01/06 09:35:49;;;;;;;2.75;0.95;;;9.30;82.50;;;;;;6250277;22;20016;-71
2022/01/06 09:38:16;;;;;;;4.13;1.00;;;9.60;81.50;;;;;;6251813;22;20008;-72
2022/01/06 09:40:44;;;;;;;5.68;1.05;;;9.60;81.60;;;;;;6247955;22;20437;-72
2022/01/06 09:43:14;;;;;;;2.85;1.10;;;9.80;81.50;;;;;;6237249;22;20039;-73
2022/01/06 09:45:42;;;;;;;3.80;1.02;;;9.80;80.90;;;;;;6239673;22;20043;-73
2022/01/06 09:48:09;;;;;;;3.38;1.00;;;10.00;80.30;;;;;;6251263;22;20372;-73
2022/01/06 09:50:42;;;;;;;3.28;1.35;;;10.30;79.80;;;;;;6254624;22;20012;-72
2022/01/06 09:53:10;;;;;;;2.58;1.10;;;10.70;80.40;;;;;;6248185;22;20787;-73
2022/01/06 09:55:38;;;;;;;3.17;1.58;;;10.80;78.90;;;;;;6235093;22;20095;-71
2022/01/06 09:58:05;;;;;;;2.67;1.23;;;11.10;79.20;;;;;;6268781;22;20324;-73
2022/01/06 10:00:32;;;;;;;1.65;0.90;;;11.00;78.40;;;;;;6257418;22;20035;-74
2022/01/06 10:03:01;;;;;;;1.42;0.85;;;10.60;77.50;;;;;;6269396;22;20511;-75
2022/01/06 10:05:42;;;;;;;2.10;1.08;;;10.70;77.70;;;;;;6237689;22;20436;-72
2022/01/06 10:08:10;;;;;;;1.58;0.80;;;10.50;77.30;;;;;;6218056;22;20035;-73
2022/01/06 10:10:37;;;;;;;1.23;0.88;;;10.90;77.80;;;;;;6257991;22;20459;-74
2022/01/06 10:13:08;;;;;;;1.42;1.00;;;10.60;76.20;;;;;;6269656;22;20351;-72
2022/01/06 10:15:37;;;;;;;2.80;1.52;;;10.90;76.20;;;;;;6259502;22;20030;-74
2022/01/06 10:18:14;;;;;;;3.15;1.77;;;11.00;81.20;;;;;;6256525;22;20031;-74
2022/01/06 10:20:43;;;;;;;2.85;1.23;;;11.30;81.70;;;;;;6249657;22;20043;-72
2022/01/06 10:23:14;;;;;;;3.05;1.27;;;11.30;78.30;;;;;;6238535;22;20062;-72
2022/01/06 10:25:48;;;;;;;2.50;1.50;;;11.70;79.40;;;;;;6239536;22;20004;-71
2022/01/06 10:28:17;;;;;;;1.83;1.08;;;11.60;79.00;;;;;;6239470;22;20035;-73
2022/01/06 10:30:48;;;;;;;3.63;1.30;;;11.90;76.60;;;;;;6241913;22;20019;-73
2022/01/06 10:33:19;;;;;;;3.42;1.10;;;11.50;77.40;;;;;;6241461;22;20316;-72
2022/01/06 10:35:47;;;;;;;2.28;1.05;;;11.80;76.70;;;;;;6249012;22;20050;-72
2022/01/06 10:38:24;;;;;;;1.80;1.00;;;11.70;76.70;;;;;;6255654;22;20117;-72
2022/01/06 10:40:50;;;;;;;3.05;1.00;;;11.70;78.00;;;;;;6247155;22;20008;-72
2022/01/06 10:43:16;;;;;;;3.42;1.40;;;11.60;78.20;;;;;;6238903;22;20070;-74
2022/01/06 10:45:43;;;;;;;4.43;1.30;;;11.30;79.70;;;;;;6239095;22;20020;-72
2022/01/06 10:48:09;;;;;;;2.83;1.35;;;10.80;80.60;;;;;;6237898;22;20008;-72
2022/01/06 10:50:37;;;;;;;4.90;1.33;;;11.10;81.30;;;;;;6240667;22;20016;-72
2022/01/06 10:53:09;;;;;;;3.08;1.40;;;10.80;80.70;;;;;;6251279;22;20018;-72
2022/01/06 10:55:46;;;;;;;2.70;1.17;;;11.00;80.50;;;;;;6241001;22;20019;-73
2022/01/06 10:58:18;;;;;;;4.20;2.00;;;11.20;78.40;;;;;;6250257;22;20027;-71
2022/01/06 11:00:54;;;;;;;3.90;1.60;;;11.80;79.80;;;;;;6241475;22;20331;-72
2022/01/06 11:03:23;;;;;;;3.28;1.10;;;12.40;78.30;;;;;;6250011;22;20020;-72
2022/01/06 11:05:57;;;;;;;2.95;1.20;;;12.90;77.40;;;;;;6261171;22;20018;-73
2022/01/06 11:08:27;;;;;;;4.07;1.23;;;13.20;76.70;;;;;;6238340;22;20020;-73
2022/01/06 11:13:38;;;;;;;4.53;1.40;;;13.40;75.80;;;;;;6270109;22;20111;-72
2022/01/06 11:16:06;;;;;;;2.78;1.40;;;13.80;75.60;;;;;;6253773;22;20008;-72
2022/01/06 11:18:34;;;;;;;2.63;1.30;;;13.60;74.90;;;;;;6270481;22;20100;-73
2022/01/06 11:21:10;;;;;;;6.57;1.52;;;13.40;75.50;;;;;;6243011;22;20015;-73
2022/01/06 11:23:36;;;;;;;2.90;1.55;;;13.60;74.90;;;;;;6267917;22;20440;-72
2022/01/06 11:26:13;;;;;;;2.60;1.35;;;14.00;74.70;;;;;;6269685;22;20023;-72
2022/01/06 11:28:44;;;;;;;3.08;1.50;;;14.40;74.60;;;;;;6269768;22;20015;-73
2022/01/06 11:31:21;;;;;;;3.65;1.35;;;14.80;74.50;;;;;;6240855;22;20040;-72
2022/01/06 11:33:50;;;;;;;7.97;1.70;;;14.80;73.00;;;;;;6263196;22;20016;-72
2022/01/06 11:36:32;;;;;;;1.90;1.20;;;14.80;74.10;;;;;;6269218;22;20004;-73
2022/01/06 11:39:00;;;;;;;3.55;1.33;;;14.30;74.50;;;;;;6244092;22;20272;-72
2022/01/06 11:41:41;;;;;;;2.50;1.20;;;14.10;74.20;;;;;;6239127;22;20028;-73
2022/01/06 11:44:20;;;;;;;2.83;1.65;;;14.50;74.00;;;;;;6238798;22;20020;-72
2022/01/06 11:46:49;;;;;;;2.88;1.33;;;14.00;74.60;;;;;;6250995;22;20023;-72
2022/01/06 11:49:36;;;;;;;2.67;1.63;;;14.00;76.00;;;;;;6250151;22;20043;-71
2022/01/06 11:52:16;;;;;;;3.58;1.80;;;14.50;75.90;;;;;;6251477;22;20385;-74
2022/01/06 11:54:51;;;;;;;3.33;1.52;;;14.40;76.80;;;;;;6237650;22;20022;-76
2022/01/06 11:57:36;;;;;;;2.83;1.55;;;14.30;75.90;;;;;;6237514;22;20020;-74
2022/01/06 12:00:24;;;;;;;4.10;1.40;;;15.00;76.20;;;;;;6238674;22;20087;-75
2022/01/06 12:03:00;;;;;;;6.38;1.80;;;14.30;76.60;;;;;;6251099;22;20061;-72
2022/01/06 12:05:27;;;;;;;4.22;1.77;;;14.70;77.40;;;;;;6255356;22;20069;-73
2022/01/06 12:07:54;;;;;;;5.50;1.95;;;14.90;77.10;;;;;;6272279;22;20489;-73
2022/01/06 12:10:21;;;;;;;3.67;1.80;;;14.80;77.30;;;;;;6238566;22;20027;-75
2022/01/06 12:12:50;;;;;;;3.38;1.80;;;15.60;76.70;;;;;;6250013;22;20020;-75
2022/01/06 12:15:19;;;;;;;3.05;1.60;;;15.60;76.40;;;;;;6257108;22;20035;-75
2022/01/06 12:17:48;;;;;;;4.28;1.50;;;15.00;75.90;;;;;;6271142;22;20035;-74
2022/01/06 12:20:22;;;;;;;3.08;1.38;;;15.60;75.90;;;;;;6241904;22;20016;-76
2022/01/06 12:22:49;;;;;;;3.17;1.65;;;16.00;76.00;;;;;;6241008;22;20016;-75
2022/01/06 12:25:15;;;;;;;2.85;1.38;;;16.10;75.10;;;;;;6237996;22;20012;-74
2022/01/06 12:27:49;;;;;;;3.88;1.83;;;16.20;74.70;;;;;;6240471;22;20020;-75
2022/01/06 12:30:19;;;;;;;3.75;1.67;;;16.40;74.50;;;;;;6251231;22;20019;-73
2022/01/06 12:33:00;;;;;;;4.07;2.05;;;16.60;73.50;;;;;;6247282;22;20493;-76
2022/01/06 12:35:43;;;;;;;4.57;1.87;;;16.10;73.00;;;;;;6236030;22;20016;-75
2022/01/06 12:38:10;;;;;;;4.53;2.00;;;16.20;74.00;;;;;;6237299;22;20463;-74
2022/01/06 12:40:43;;;;;;;3.60;1.67;;;16.60;72.70;;;;;;6240221;22;20012;-75
2022/01/06 12:43:15;;;;;;;3.05;1.67;;;15.80;72.90;;;;;;6240001;22;20016;-76
2022/01/06 12:45:43;;;;;;;7.32;2.65;;;15.50;72.80;;;;;;6237766;22;20016;-74
2022/01/06 12:48:11;;;;;;;3.45;1.95;;;16.70;73.20;;;;;;6239088;22;20020;-75
2022/01/06 12:50:45;;;;;;;6.40;2.72;;;16.60;72.60;;;;;;6228489;22;20043;-73
2022/01/06 12:53:22;;;;;;;3.90;2.10;;;17.00;71.10;;;;;;6250994;22;20012;-73
2022/01/06 12:55:48;;;;;;;5.47;2.90;;;16.20;70.50;;;;;;6240641;22;20012;-77
2022/01/06 12:58:33;;;;;;;2.75;1.63;;;16.80;70.00;;;;;;6240003;22;20019;-74
2022/01/06 13:01:03;;;;;;;6.70;1.65;;;16.20;69.40;;;;;;6252875;22;20007;-74
2022/01/06 13:03:36;;;;;;;3.15;1.50;;;16.70;69.20;;;;;;6258148;22;20083;-75
2022/01/06 13:06:07;;;;;;;2.97;1.63;;;17.20;69.60;;;;;;6260591;22;20446;-76
2022/01/06 13:08:45;;;;;;;3.25;1.40;;;17.00;69.40;;;;;;6249324;22;20008;-75